TFFRTNCM

Guest
Details From TFFR - Pointe a Pitre Le Raizet
To TNCM - St Maarten - Princess Juliana Intl
Flight Number -
Tags decoded
Created
Modified
Stats Distance 143 nm / 264 km
Max Altitude 0 ft / 0 m
Waypoints 5
Social Downloads 11
Likes 0
Share VATSIM

Download

Looking for another format? Having issues loading an existing format? Contact us
Advertisement - Login to hide

Notes

Requested: TFFR BIMBO A517 TIKAL TNCM

Route

TFFR BIMBO A517 TIKAL TNCM

ID Type Via Altitude Latitude Longitude Leg Dist Tot Dist Heading (true) Name
O TFFR APT - 0 ft / 0 m 16.26531˚ -61.53181˚ - 0 nm - Pointe a Pitre Le Raizet
BIMBO FIX - 0 ft / 0 m 16.62667˚ -61.96028˚ 32 nm 32 nm 311° / 311° -
SKB NDB A517 (AWY-LO) 0 ft / 0 m 17.29597˚ -62.74328˚ 60 nm 93 nm 312° / 312° BRADSHAW NDB
TIKAL FIX A517 (AWY-LO) 0 ft / 0 m 17.47381˚ -62.81800˚ 11 nm 104 nm 338° / 338° -
O TNCM APT - 0 ft / 0 m 18.04089˚ -63.10897˚ 37 nm 142 nm 334° / 334° St Maarten - Princess Juliana Intl

Altitude Profile

Advertisement - Login to hide

TFFR

Details ICAO TFFR (PTP)
Name Pointe a Pitre Le Raizet
Region France (Guadeloupe, Martinique, Saint Barthélemy, Saint Martin)
Timezone America/Guadeloupe (UTC-4.0)
Stats Elevation 35 ft / 11 m (AMSL)
Location 16.265306° -61.531808°
Runways 1
Magnetic Variation 14.868° W

METAR

TFFR 270830Z AUTO 16004KT 7000 NSC 25/23 Q1014 TEMPO VRB15G25KT 3000 SHRA FEW013CB BKN015TCU

Decode

TAF

TAF TFFR 270400Z 2706/2806 10003KT 9999 SCT025 TEMPO 2706/2721 VRB15G25KT 3000 SHRA FEW013CB BKN015TCU BECMG 2710/2712 12014KT PROB40 TEMPO 2715/2718 VRB15G30KT 1000 TSRA BKN013CB

Decode

Departure Runways

ID Width Length Bearing (true) Bearing (mag) Surface Threshold Offset Overrun Length
11 148 ft / 45 m 11,513 ft / 3,509 m 100.94° 115.81° Asphalt 0 ft / 0 m 0 ft / 0 m
29 148 ft / 45 m 11,513 ft / 3,509 m 280.95° 295.82° Asphalt 0 ft / 0 m 0 ft / 0 m

TNCM

Details ICAO TNCM (SXM)
Name St Maarten - Princess Juliana Intl
Region Caribbean Netherlands, Aruba, Curaçao, Sint Maarten
Timezone Unknown (UTC+0.0)
Stats Elevation 12 ft / 4 m (AMSL)
Location 18.040889° -63.108974°
Runways 1
Magnetic Variation 14.337° W

METAR

TNCM 270800Z 10006KT 070V140 9999 FEW019 26/24 Q1015 A2997

Decode

TAF

TNCM 270520Z 2706/2806 09006KT P6SM VCSH SCT015 BKN030 FM271300 10007KT P6SM VCSH FEW022

Decode

Destination Runways

ID Width Length Bearing (true) Bearing (mag) Surface Threshold Offset Overrun Length
10 148 ft / 45 m 7,464 ft / 2,275 m 81.43° 95.77° Asphalt 0 ft / 0 m 151 ft / 46 m
28 148 ft / 45 m 7,464 ft / 2,275 m 261.44° 275.78° Asphalt 397 ft / 121 m 0 ft / 0 m

Popular Alternatives